Amery, Wisconsin
Current Conditions -  °F | °C
As of 8:15 PM on Tuesday 21 Oct 2014 (Local Time) from KRNH Reporting Station
Clear Clear  
Wind Chill: 44°   Ceiling: Unl
Heat Index: 44°   Visibility: 10mi
Dew Point: 36°   Wind: 3mph
Humidity: 73%   Direction: 130°SE
Pressure: 30.18"   Gusts: NA
Location:  45.31°N, 92.36°W
Report Text: KRNH 220115Z AUTO 13003KT 10SM CLR 07/02 A3018 RMK AO2 T00660020
Loading
Personal Weather Stations






























Interactive Weather Map New forecast layout! Learn more

10-Day Weather Forecast

Advertisements
Track Severe Weather on mobile